createdAt,value
2019-04-14T00:00:33.932Z,30.77
2019-04-14T00:03:11.046Z,32.83
2019-04-14T00:05:41.078Z,28.33
2019-04-14T00:08:11.076Z,29.33
2019-04-14T00:10:40.699Z,28.90
2019-04-14T00:13:11.005Z,29.13
2019-04-14T00:15:45.038Z,31.30
2019-04-14T00:18:11.827Z,31.70
2019-04-14T00:20:42.310Z,30.53
2019-04-14T00:23:13.000Z,30.13
2019-04-14T00:25:43.369Z,31.00
2019-04-14T00:28:14.097Z,32.73
2019-04-14T00:30:44.701Z,32.70
2019-04-14T00:33:16.929Z,31.33
2019-04-14T00:35:53.971Z,32.17
2019-04-14T00:38:25.986Z,30.93
2019-04-14T00:40:58.271Z,32.57
2019-04-14T00:43:46.990Z,32.53
2019-04-14T00:46:34.198Z,33.33
2019-04-14T00:49:04.983Z,32.17
2019-04-14T00:51:37.749Z,32.97
2019-04-14T00:54:06.631Z,33.20
2019-04-14T00:56:36.884Z,34.47
2019-04-14T00:59:07.124Z,33.40
2019-04-14T01:01:37.245Z,34.63
2019-04-14T01:04:07.708Z,34.33
2019-04-14T01:06:38.196Z,32.97
2019-04-14T01:09:09.225Z,34.17
2019-04-14T01:11:39.924Z,36.10
2019-04-14T01:14:10.112Z,35.93
2019-04-14T01:16:40.754Z,35.83
2019-04-14T01:19:11.267Z,34.43
2019-04-14T01:21:41.322Z,33.90
2019-04-14T01:24:11.968Z,36.97
2019-04-14T01:26:42.069Z,35.87
2019-04-14T01:29:12.271Z,34.63
2019-04-14T01:31:42.497Z,36.07
2019-04-14T01:34:12.937Z,34.43
2019-04-14T01:36:43.163Z,34.97
2019-04-14T01:39:13.317Z,33.50
2019-04-14T01:41:43.175Z,34.53
2019-04-14T01:44:13.525Z,36.83
2019-04-14T01:46:43.454Z,39.80
2019-04-14T01:49:13.673Z,38.40
2019-04-14T01:51:44.808Z,40.37
2019-04-14T01:54:32.350Z,39.03
2019-04-14T01:57:09.167Z,41.33
2019-04-14T01:59:39.106Z,39.63
2019-04-14T02:02:10.233Z,41.83
2019-04-14T02:04:39.884Z,40.17
2019-04-14T02:07:10.182Z,39.77
2019-04-14T02:09:40.130Z,45.27
2019-04-14T02:12:10.561Z,43.20
2019-04-14T02:14:40.839Z,43.43
2019-04-14T02:17:11.166Z,41.10
2019-04-14T02:19:41.665Z,42.57
2019-04-14T02:22:11.688Z,43.33
2019-04-14T02:24:41.715Z,41.87
2019-04-14T02:27:12.078Z,42.90
2019-04-14T02:29:42.884Z,45.70
2019-04-14T02:35:13.627Z,44.50
2019-04-14T02:37:49.098Z,42.27
2019-04-14T02:42:42.003Z,43.23
2019-04-14T02:45:19.353Z,43.67
2019-04-14T02:50:15.534Z,44.87
2019-04-14T02:52:52.048Z,45.33
2019-04-14T02:55:15.859Z,46.20
2019-04-14T02:57:45.365Z,43.30
2019-04-14T03:00:23.988Z,42.63
2019-04-14T03:02:48.763Z,42.67
2019-04-14T03:05:22.329Z,42.43
2019-04-14T03:07:51.505Z,40.87
2019-04-14T03:10:29.878Z,43.13
2019-04-14T03:13:03.107Z,41.90
2019-04-14T03:15:35.354Z,43.57
2019-04-14T03:20:40.057Z,42.70
2019-04-14T03:23:33.164Z,44.77
2019-04-14T03:25:59.413Z,45.27
2019-04-14T03:28:45.448Z,43.80
2019-04-14T03:34:08.201Z,45.93
2019-04-14T03:37:06.721Z,46.53
2019-04-14T03:38:53.216Z,45.53
2019-04-14T03:41:17.484Z,47.30
2019-04-14T03:43:39.227Z,50.10
2019-04-14T03:46:21.389Z,49.73
2019-04-14T03:51:18.861Z,51.23
2019-04-14T03:53:45.858Z,48.13
2019-04-14T03:56:01.913Z,47.37
2019-04-14T03:58:27.346Z,47.07
2019-04-14T04:00:57.622Z,48.93
2019-04-14T04:03:27.968Z,46.27
2019-04-14T04:05:58.592Z,47.53
2019-04-14T04:08:29.037Z,44.37
2019-04-14T04:11:00.277Z,43.87
2019-04-14T04:13:30.219Z,41.47
2019-04-14T04:16:13.806Z,46.77
2019-04-14T04:18:51.251Z,41.67
2019-04-14T04:21:22.791Z,40.33
2019-04-14T04:23:57.553Z,41.67
2019-04-14T04:26:34.532Z,41.57
2019-04-14T04:29:05.560Z,39.80
2019-04-14T04:31:48.362Z,39.70
2019-04-14T04:34:20.480Z,38.53
2019-04-14T04:37:06.447Z,37.73
2019-04-14T04:39:38.564Z,37.93
2019-04-14T04:42:09.121Z,38.87
2019-04-14T04:44:39.857Z,41.10
2019-04-14T04:47:09.952Z,47.97
2019-04-14T04:49:40.441Z,42.70
2019-04-14T04:52:11.450Z,43.10
2019-04-14T04:54:41.020Z,40.50
2019-04-14T04:57:11.253Z,40.97
2019-04-14T04:59:40.919Z,38.40
2019-04-14T05:02:11.267Z,37.53
2019-04-14T05:04:41.580Z,39.60
2019-04-14T05:07:12.176Z,43.47
2019-04-14T05:09:46.917Z,42.47
2019-04-14T05:12:18.024Z,43.70
2019-04-14T05:15:01.204Z,43.97
2019-04-14T05:17:38.882Z,42.50
2019-04-14T05:20:09.420Z,44.87
2019-04-14T05:22:39.815Z,43.67
2019-04-14T05:25:10.066Z,43.33
2019-04-14T05:27:40.829Z,42.43
2019-04-14T05:30:11.169Z,45.07
2019-04-14T05:32:43.524Z,40.73
2019-04-14T05:35:14.037Z,39.60
2019-04-14T05:37:44.352Z,40.63
2019-04-14T05:40:14.541Z,43.23
2019-04-14T05:42:45.032Z,39.07
2019-04-14T05:45:15.500Z,36.57
2019-04-14T05:47:45.730Z,36.83
2019-04-14T05:50:15.888Z,36.23
2019-04-14T05:52:45.336Z,37.47
2019-04-14T05:55:15.573Z,35.37
2019-04-14T05:57:45.979Z,37.57
2019-04-14T06:00:17.062Z,35.47
2019-04-14T06:02:46.462Z,37.97
2019-04-14T06:05:16.593Z,35.23
2019-04-14T06:07:46.122Z,35.40
2019-04-14T06:10:15.728Z,37.20
2019-04-14T06:12:45.131Z,36.13
2019-04-14T06:15:14.582Z,32.70
2019-04-14T06:17:43.951Z,34.13
2019-04-14T06:20:13.465Z,33.67
2019-04-14T06:22:42.835Z,32.07
2019-04-14T06:25:12.357Z,29.60
2019-04-14T06:27:41.740Z,30.67
2019-04-14T06:30:19.190Z,30.90
2019-04-14T06:32:49.739Z,28.77
2019-04-14T06:35:32.789Z,29.23
2019-04-14T06:38:05.808Z,28.87
2019-04-14T06:40:36.663Z,29.97
2019-04-14T06:43:06.044Z,31.83
2019-04-14T06:45:35.414Z,31.67
2019-04-14T06:48:04.788Z,30.80
2019-04-14T06:50:34.161Z,31.87
2019-04-14T06:53:05.181Z,35.17
2019-04-14T06:55:34.663Z,30.70
2019-04-14T06:58:04.056Z,30.43
2019-04-14T07:00:33.421Z,30.20
2019-04-14T07:03:02.783Z,29.70
2019-04-14T07:05:32.101Z,28.73
2019-04-14T07:08:03.393Z,32.47
2019-04-14T07:10:32.818Z,32.40
2019-04-14T07:13:02.186Z,33.10
2019-04-14T07:15:31.572Z,33.23
2019-04-14T07:18:01.025Z,31.77
2019-04-14T07:20:30.517Z,33.50
2019-04-14T07:22:59.878Z,32.63
2019-04-14T07:25:29.261Z,32.90
2019-04-14T07:27:58.670Z,32.50
2019-04-14T07:30:44.790Z,32.83
2019-04-14T07:33:15.819Z,31.80
2019-04-14T07:36:03.044Z,30.57
2019-04-14T07:38:34.131Z,33.03
2019-04-14T07:41:13.693Z,31.13
2019-04-14T07:43:56.811Z,29.70
2019-04-14T07:46:27.847Z,31.77
2019-04-14T07:48:58.862Z,29.83
2019-04-14T07:51:32.397Z,29.67
2019-04-14T07:54:06.419Z,30.37
2019-04-14T07:56:40.139Z,29.17
2019-04-14T07:59:11.152Z,30.63
2019-04-14T08:01:48.033Z,31.67
2019-04-14T08:04:19.041Z,34.87
2019-04-14T08:06:50.027Z,33.13
2019-04-14T08:09:19.397Z,31.33
2019-04-14T08:11:48.769Z,32.17
2019-04-14T08:14:18.170Z,31.80
2019-04-14T08:16:47.584Z,32.00
2019-04-14T08:19:16.967Z,34.33
2019-04-14T08:21:46.346Z,33.23
2019-04-14T08:24:15.754Z,31.13
2019-04-14T08:26:45.215Z,33.07
2019-04-14T08:29:14.864Z,30.90
2019-04-14T08:31:44.698Z,30.17
2019-04-14T08:34:14.059Z,30.47
2019-04-14T08:36:43.441Z,29.87
2019-04-14T08:39:13.520Z,31.03
2019-04-14T08:41:59.460Z,32.67
2019-04-14T08:44:30.473Z,34.17
2019-04-14T08:47:05.890Z,30.80
2019-04-14T08:49:48.869Z,28.70
2019-04-14T08:52:36.532Z,25.77
2019-04-14T08:55:23.769Z,28.80
2019-04-14T08:58:07.166Z,27.73
2019-04-14T09:00:44.140Z,28.17
2019-04-14T09:03:15.266Z,26.13
2019-04-14T09:06:02.645Z,24.93
2019-04-14T09:08:36.549Z,23.60
2019-04-14T09:11:07.668Z,26.33
2019-04-14T09:13:37.125Z,23.83
2019-04-14T09:16:06.560Z,24.37
2019-04-14T09:18:36.016Z,23.10
2019-04-14T09:21:05.562Z,22.50
2019-04-14T09:23:34.994Z,23.07
2019-04-14T09:26:04.425Z,22.43
2019-04-14T09:28:33.865Z,25.77
2019-04-14T09:31:04.882Z,21.93
2019-04-14T09:33:34.295Z,23.13
2019-04-14T09:36:03.742Z,21.77
2019-04-14T09:38:33.146Z,21.33
2019-04-14T09:41:02.534Z,21.20
2019-04-14T09:43:31.973Z,22.90
2019-04-14T09:46:04.057Z,23.23
2019-04-14T09:48:33.448Z,22.13
2019-04-14T09:51:05.161Z,22.20
2019-04-14T09:53:34.017Z,21.57
2019-04-14T09:56:03.417Z,23.17
2019-04-14T09:58:32.811Z,21.00
2019-04-14T10:01:02.314Z,22.10
2019-04-14T10:03:31.617Z,21.63
2019-04-14T10:06:01.061Z,22.40
2019-04-14T10:08:30.528Z,23.87
2019-04-14T10:10:59.915Z,23.67
2019-04-14T10:13:29.307Z,21.70
2019-04-14T10:15:58.693Z,23.47
2019-04-14T10:18:28.111Z,22.50
2019-04-14T10:20:57.476Z,24.10
2019-04-14T10:23:26.793Z,20.97
2019-04-14T10:25:56.185Z,21.20
2019-04-14T10:28:25.566Z,20.90
2019-04-14T10:30:54.982Z,21.10
2019-04-14T10:33:24.432Z,32.07
2019-04-14T10:35:53.852Z,22.00
2019-04-14T10:38:23.217Z,23.10
2019-04-14T10:40:52.603Z,24.53
2019-04-14T10:43:22.024Z,23.67
2019-04-14T10:45:51.397Z,23.60
2019-04-14T10:48:20.854Z,23.83
2019-04-14T10:50:50.226Z,22.97
2019-04-14T10:53:19.692Z,23.50
2019-04-14T10:55:49.109Z,22.27
2019-04-14T10:58:18.774Z,22.70
2019-04-14T11:00:48.180Z,22.93
2019-04-14T11:03:17.560Z,22.97
2019-04-14T11:06:03.538Z,23.37
2019-04-14T11:08:34.748Z,22.17
2019-04-14T11:11:04.214Z,21.37
2019-04-14T11:13:33.585Z,21.07
2019-04-14T11:16:02.981Z,20.53
2019-04-14T11:18:32.281Z,21.00
2019-04-14T11:21:01.679Z,20.93
2019-04-14T11:23:31.179Z,20.50
2019-04-14T11:26:00.656Z,20.03
2019-04-14T11:28:30.072Z,20.73
2019-04-14T11:30:59.548Z,19.83
2019-04-14T11:33:33.339Z,20.40
2019-04-14T11:36:20.740Z,21.17
2019-04-14T11:38:54.272Z,21.17
2019-04-14T11:41:24.554Z,20.47
2019-04-14T11:43:53.956Z,19.13
2019-04-14T11:46:23.460Z,18.67
2019-04-14T11:48:52.916Z,20.53
2019-04-14T11:51:22.369Z,19.70
2019-04-14T11:53:51.801Z,19.57
2019-04-14T11:56:21.200Z,18.80
2019-04-14T11:58:50.566Z,19.30
2019-04-14T12:01:24.274Z,19.03
2019-04-14T12:04:10.432Z,18.87
2019-04-14T12:06:57.585Z,19.30
2019-04-14T12:09:32.927Z,19.50
2019-04-14T12:12:02.522Z,18.67
2019-04-14T12:14:31.926Z,18.27
2019-04-14T12:17:03.125Z,18.53
2019-04-14T12:19:32.495Z,16.83
2019-04-14T12:22:08.242Z,16.70
2019-04-14T12:24:33.264Z,18.47
2019-04-14T12:27:03.047Z,18.07
2019-04-14T12:29:32.597Z,17.63
2019-04-14T12:32:02.279Z,16.23
2019-04-14T12:34:31.673Z,16.83
2019-04-14T12:37:03.382Z,16.50
2019-04-14T12:39:32.842Z,17.50
2019-04-14T12:42:06.547Z,17.20
2019-04-14T12:44:40.261Z,16.17
2019-04-14T12:47:14.263Z,16.70
2019-04-14T12:49:45.274Z,15.70
2019-04-14T12:52:21.428Z,16.73
2019-04-14T12:54:46.905Z,17.23
2019-04-14T12:57:17.951Z,17.67
2019-04-14T12:59:47.316Z,16.57
2019-04-14T13:02:21.374Z,17.73
2019-04-14T13:04:50.816Z,18.63
2019-04-14T13:07:20.258Z,17.13
2019-04-14T13:09:49.680Z,18.27
2019-04-14T13:12:19.060Z,17.03
2019-04-14T13:14:51.446Z,16.33
2019-04-14T13:17:20.833Z,17.13
2019-04-14T13:19:50.230Z,17.63
2019-04-14T13:22:19.632Z,18.20
2019-04-14T13:24:49.079Z,17.23
2019-04-14T13:27:18.515Z,17.87
2019-04-14T13:29:47.976Z,17.20
2019-04-14T13:32:17.359Z,16.57
2019-04-14T13:34:46.817Z,19.83
2019-04-14T13:37:16.219Z,17.80
2019-04-14T13:39:45.622Z,16.70
2019-04-14T13:42:14.928Z,16.57
2019-04-14T13:44:44.381Z,16.10
2019-04-14T13:47:13.758Z,17.27
2019-04-14T13:49:43.180Z,16.93
2019-04-14T13:52:12.617Z,16.40
2019-04-14T13:54:42.053Z,16.30
2019-04-14T13:57:11.455Z,17.87
2019-04-14T13:59:40.817Z,17.53
2019-04-14T14:02:10.220Z,16.70
2019-04-14T14:04:39.627Z,17.07
2019-04-14T14:07:10.781Z,22.70
2019-04-14T14:09:40.188Z,16.03
2019-04-14T14:12:11.219Z,15.83
2019-04-14T14:14:42.272Z,15.57
2019-04-14T14:17:16.110Z,15.57
2019-04-14T14:19:56.378Z,15.40
2019-04-14T14:22:27.468Z,17.43
2019-04-14T14:25:01.087Z,17.17
2019-04-14T14:27:30.474Z,16.13
2019-04-14T14:29:59.882Z,15.70
2019-04-14T14:32:31.105Z,15.70
2019-04-14T14:35:00.580Z,15.57
2019-04-14T14:37:34.447Z,16.90
2019-04-14T14:40:05.915Z,17.13
2019-04-14T14:42:35.310Z,17.67
2019-04-14T14:45:28.120Z,16.60
2019-04-14T14:48:04.671Z,19.90
2019-04-14T14:50:35.694Z,16.60
2019-04-14T14:53:11.897Z,16.30
2019-04-14T14:55:36.265Z,15.33
2019-04-14T14:58:05.650Z,16.17
2019-04-14T15:00:35.115Z,16.47
2019-04-14T15:03:04.578Z,17.00
2019-04-14T15:05:33.975Z,17.43
2019-04-14T15:08:03.409Z,16.63
2019-04-14T15:10:32.849Z,16.27
2019-04-14T15:13:02.240Z,16.30
2019-04-14T15:15:31.647Z,16.03
2019-04-14T15:18:01.088Z,16.07
2019-04-14T15:20:30.602Z,16.70
2019-04-14T15:23:00.008Z,17.00
2019-04-14T15:25:29.393Z,17.13
2019-04-14T15:27:58.795Z,17.03
2019-04-14T15:30:28.178Z,17.73
2019-04-14T15:32:57.573Z,16.53
2019-04-14T15:35:27.047Z,16.37
2019-04-14T15:37:56.574Z,15.23
2019-04-14T15:40:26.013Z,16.13
2019-04-14T15:42:55.400Z,15.97
2019-04-14T15:45:24.792Z,17.10
2019-04-14T15:47:54.209Z,16.10
2019-04-14T15:50:23.714Z,16.00
2019-04-14T15:52:53.214Z,16.33
2019-04-14T15:55:22.676Z,16.07
2019-04-14T15:57:59.266Z,15.00
2019-04-14T16:00:33.017Z,15.87
2019-04-14T16:03:15.833Z,15.80
2019-04-14T16:05:49.593Z,15.90
2019-04-14T16:08:20.689Z,16.23
2019-04-14T16:10:54.444Z,16.37
2019-04-14T16:13:25.444Z,15.70
2019-04-14T16:16:02.541Z,15.07
2019-04-14T16:18:42.359Z,14.63
2019-04-14T16:21:11.853Z,14.73
2019-04-14T16:23:50.461Z,15.43
2019-04-14T16:26:17.035Z,14.43
2019-04-14T16:28:50.734Z,15.20
2019-04-14T16:31:27.621Z,15.07
2019-04-14T16:34:02.581Z,14.30
2019-04-14T16:36:31.981Z,14.83
2019-04-14T16:39:01.406Z,15.40
2019-04-14T16:41:30.866Z,13.50
2019-04-14T16:44:01.806Z,14.20
2019-04-14T16:46:31.267Z,13.27
2019-04-14T16:49:00.748Z,14.10
2019-04-14T16:51:37.227Z,13.80
2019-04-14T16:54:14.019Z,12.47
2019-04-14T16:56:57.193Z,12.47
2019-04-14T16:59:26.604Z,12.53
2019-04-14T17:01:55.986Z,12.63
2019-04-14T17:04:26.191Z,12.43
2019-04-14T17:06:55.676Z,13.23
2019-04-14T17:09:25.136Z,12.33
2019-04-14T17:11:54.527Z,12.53
2019-04-14T17:14:36.212Z,12.13
2019-04-14T17:17:07.086Z,11.43
2019-04-14T17:19:40.871Z,11.30
2019-04-14T17:22:29.473Z,10.63
2019-04-14T17:25:06.412Z,10.50
2019-04-14T17:27:37.526Z,11.23
2019-04-14T17:30:12.085Z,12.07
2019-04-14T17:32:43.104Z,11.77
2019-04-14T17:35:19.920Z,13.70
2019-04-14T17:37:53.401Z,12.50
2019-04-14T17:40:42.392Z,12.23
2019-04-14T17:43:13.411Z,11.67
2019-04-14T17:45:44.446Z,13.33
2019-04-14T17:48:27.536Z,17.37
2019-04-14T17:50:58.699Z,13.47
2019-04-14T17:53:32.375Z,12.00
2019-04-14T17:56:06.366Z,11.93
2019-04-14T17:58:40.323Z,12.97
2019-04-14T18:01:27.588Z,12.60
2019-04-14T18:04:15.188Z,12.90
2019-04-14T18:06:48.939Z,13.50
2019-04-14T18:09:36.376Z,12.90
2019-04-14T18:12:07.771Z,14.53
2019-04-14T18:14:53.758Z,14.87
2019-04-14T18:17:30.913Z,14.23
2019-04-14T18:20:02.092Z,14.40
2019-04-14T18:22:31.686Z,15.07
2019-04-14T18:25:01.075Z,14.73
2019-04-14T18:27:32.250Z,15.00
2019-04-14T18:30:18.449Z,16.63
2019-04-14T18:32:49.480Z,15.00
2019-04-14T18:35:20.573Z,15.17
2019-04-14T18:37:51.652Z,17.50
2019-04-14T18:40:40.624Z,18.40
2019-04-14T18:43:27.640Z,18.33
2019-04-14T18:45:58.666Z,18.27
2019-04-14T18:48:41.585Z,17.93
2019-04-14T18:51:15.590Z,19.37
2019-04-14T18:53:55.566Z,18.27
2019-04-14T18:56:26.645Z,19.40
2019-04-14T18:59:03.595Z,18.20
2019-04-14T19:01:34.703Z,18.83
2019-04-14T19:04:04.207Z,19.03
2019-04-14T19:06:33.575Z,19.93
2019-04-14T19:09:03.661Z,19.20
2019-04-14T19:11:40.819Z,20.93
2019-04-14T19:14:11.996Z,21.63
2019-04-14T19:16:43.114Z,20.40
2019-04-14T19:19:12.645Z,20.27
2019-04-14T19:21:42.107Z,20.07
2019-04-14T19:24:11.490Z,23.07
2019-04-14T19:26:41.023Z,21.90
2019-04-14T19:29:10.432Z,18.63
2019-04-14T19:31:39.836Z,19.83
2019-04-14T19:34:09.258Z,19.30
2019-04-14T19:36:38.809Z,18.70
2019-04-14T19:39:10.644Z,19.73
2019-04-14T19:41:41.658Z,19.37
2019-04-14T19:44:11.247Z,23.13
2019-04-14T19:46:41.330Z,21.87
2019-04-14T19:49:10.721Z,19.87
2019-04-14T19:51:40.107Z,18.47
2019-04-14T19:54:09.595Z,20.87
2019-04-14T19:56:39.090Z,18.60
2019-04-14T19:59:08.506Z,18.67
2019-04-14T20:01:37.904Z,19.57
2019-04-14T20:04:07.360Z,18.97
2019-04-14T20:06:36.729Z,19.00
2019-04-14T20:09:07.491Z,18.43
2019-04-14T20:11:37.093Z,19.13
2019-04-14T20:14:06.765Z,18.80
2019-04-14T20:16:37.840Z,19.03
2019-04-14T20:19:24.964Z,19.33
2019-04-14T20:21:56.061Z,20.10
2019-04-14T20:24:41.865Z,18.57
2019-04-14T20:27:21.989Z,19.20
2019-04-14T20:29:53.024Z,19.30
2019-04-14T20:32:24.041Z,20.07
2019-04-14T20:34:53.503Z,19.83
2019-04-14T20:37:23.074Z,19.37
2019-04-14T20:39:52.454Z,19.00
2019-04-14T20:42:21.877Z,19.47
2019-04-14T20:44:53.050Z,20.63
2019-04-14T20:47:22.442Z,19.17
2019-04-14T20:49:51.995Z,17.83
2019-04-14T20:52:21.392Z,18.23
2019-04-14T20:54:50.850Z,19.67
2019-04-14T20:57:20.890Z,18.23
2019-04-14T20:59:51.695Z,19.47
2019-04-14T21:02:31.588Z,17.07
2019-04-14T21:05:05.592Z,19.03
2019-04-14T21:07:42.489Z,18.57
2019-04-14T21:10:25.687Z,17.30
2019-04-14T21:12:56.747Z,17.90
2019-04-14T21:15:36.886Z,18.70
2019-04-14T21:18:07.903Z,21.30
2019-04-14T21:20:57.142Z,18.47
2019-04-14T21:23:34.110Z,17.10
2019-04-14T21:26:07.875Z,16.13
2019-04-14T21:28:38.892Z,18.67
2019-04-14T21:31:15.643Z,17.63
2019-04-14T21:33:49.382Z,16.87
2019-04-14T21:36:36.410Z,16.77
2019-04-14T21:39:26.786Z,15.43
2019-04-14T21:41:56.158Z,16.00
2019-04-14T21:44:25.523Z,14.87
2019-04-14T21:46:54.902Z,16.03
2019-04-14T21:49:24.291Z,12.87
2019-04-14T21:52:07.111Z,12.30
2019-04-14T21:54:36.548Z,13.47
2019-04-14T21:57:13.627Z,13.03
2019-04-14T21:59:47.333Z,13.33
2019-04-14T22:02:34.494Z,12.77
2019-04-14T22:05:12.045Z,11.63
2019-04-14T22:07:46.021Z,11.93
2019-04-14T22:10:19.914Z,11.20
2019-04-14T22:12:49.301Z,12.67
2019-04-14T22:15:18.749Z,11.03
2019-04-14T22:17:49.636Z,11.60
2019-04-14T22:20:19.075Z,11.10
2019-04-14T22:22:48.446Z,11.60
2019-04-14T22:25:17.839Z,10.47
2019-04-14T22:27:49.896Z,10.50
2019-04-14T22:30:19.447Z,9.90
2019-04-14T22:32:48.875Z,11.17
2019-04-14T22:35:18.343Z,11.00
2019-04-14T22:37:47.706Z,10.67
2019-04-14T22:40:17.164Z,11.13
2019-04-14T22:42:46.595Z,10.80
2019-04-14T22:45:16.438Z,8.67
2019-04-14T22:47:45.842Z,9.10
2019-04-14T22:50:15.474Z,8.73
2019-04-14T22:52:44.834Z,7.67
2019-04-14T22:55:14.383Z,7.03
2019-04-14T22:57:43.764Z,7.10
2019-04-14T23:00:17.744Z,7.60
2019-04-14T23:02:57.748Z,7.20
2019-04-14T23:05:44.697Z,9.03
2019-04-14T23:08:24.920Z,7.50
2019-04-14T23:10:58.558Z,6.67
2019-04-14T23:13:32.342Z,6.90
2019-04-14T23:16:21.037Z,7.20
2019-04-14T23:19:00.614Z,6.73
2019-04-14T23:21:31.643Z,7.30
2019-04-14T23:24:11.621Z,7.27
2019-04-14T23:26:51.750Z,7.10
2019-04-14T23:29:12.083Z,7.43
2019-04-14T23:31:41.477Z,6.57
2019-04-14T23:34:10.841Z,7.13
2019-04-14T23:36:40.211Z,7.17
2019-04-14T23:39:11.287Z,6.97
2019-04-14T23:41:40.787Z,7.10
2019-04-14T23:44:10.166Z,6.43
2019-04-14T23:46:39.582Z,7.03
2019-04-14T23:49:08.866Z,8.10
2019-04-14T23:51:38.249Z,7.67
2019-04-14T23:54:07.659Z,7.50
2019-04-14T23:56:37.132Z,8.03
2019-04-14T23:59:06.559Z,7.10
